This is the latest recevied weather packets stored in our database for station/object HI6LT. If no packets are shown the sender has not sent any weather packets the latest 10 day(s).
| Time | Temp. | Humidity | Pressure | Rain* | Wind** | Luminosity | Snow |
|---|---|---|---|---|---|---|---|
| 1777460580 | 15° C | 91% | 1033.9 hPa | 0 mm | - | - | - |
| 1777460233 | 14.44° C | 94% | 1033.5 hPa | 0 mm | - | - | - |
| 1777459585 | 13.89° C | 96% | 1033 hPa | 0 mm | - | - | - |
| 1777459299 | 15° C | 92% | 1033.7 hPa | 0 mm | - | - | - |
| 1777458386 | 13.33° C | 97% | 1032.7 hPa | 0 mm | - | - | - |
| 1777457877 | 14.44° C | 93% | 1033.4 hPa | 0 mm | - | - | - |
| 1777457497 | 14.44° C | 94% | 1033.5 hPa | 0 mm | - | - | - |
| 1777457026 | 13.33° C | 97% | 1032.5 hPa | 0 mm | - | - | - |
| 1777455697 | 13.89° C | 96% | 1033 hPa | 0 mm | - | - | - |
| 1777455177 | 13.89° C | 96% | 1032.8 hPa | 0 mm | - | - | - |
| 1777454026 | 13.89° C | 96% | 1032.8 hPa | 0 mm | - | - | - |
| 1777453897 | 13.33° C | 97% | 1032.7 hPa | 0 mm | - | - | - |
| 1777452474 | 13.33° C | 97% | 1032.4 hPa | 0 mm | - | - | - |
| 1777452104 | 13.33° C | 97% | 1032.5 hPa | 0 mm | - | - | - |
| 1777451785 | 13.89° C | 97% | 1032.8 hPa | 0 mm | - | - | - |
| 1777450303 | 13.89° C | 96% | 1032.8 hPa | 0 mm | - | - | - |
| 1777450045 | 14.44° C | 96% | 1033.3 hPa | 0 mm | - | - | - |
| 1777449772 | 13.89° C | 97% | 1032.8 hPa | 0 mm | - | - | - |
| 1777448755 | 14.44° C | 97% | 1033.7 hPa | 0 mm | - | - | - |
| 1777448501 | 13.89° C | 97% | 1032.8 hPa | 0 mm | - | - | - |
| 1777447426 | 13.89° C | 98% | 1034.1 hPa | 0 mm | - | - | - |
| 1777447081 | 13.89° C | 96% | 1033 hPa | 0 mm | - | - | - |
| 1777446701 | 14.44° C | 96% | 1033.3 hPa | 0 mm | - | - | - |
| 1777445845 | 13.89° C | 97% | 1034.1 hPa | 0 mm | - | - | - |
| 1777444899 | 14.44° C | 97% | 1033.7 hPa | 0 mm | - | - | - |
* Rain latest hour (hover to see other rain measurements)
** Current wind speed in m/s (hover to see current wind gust speed)